sensor_id;sensor_type;location;lat;lon;timestamp;P1;durP1;ratioP1;P2;durP2;ratioP2
71383;SDS011;61466;52.166;5.004;2022-11-20T00:01:44;4.68;;;3.22;;
71383;SDS011;61466;52.166;5.004;2022-11-20T00:04:10;7.53;;;4.03;;
71383;SDS011;61466;52.166;5.004;2022-11-20T00:06:36;7.72;;;3.80;;
71383;SDS011;61466;52.166;5.004;2022-11-20T00:09:01;10.63;;;3.97;;
71383;SDS011;61466;52.166;5.004;2022-11-20T00:11:27;5.90;;;4.50;;
71383;SDS011;61466;52.166;5.004;2022-11-20T00:13:55;4.72;;;3.00;;
71383;SDS011;61466;52.166;5.004;2022-11-20T00:16:23;3.13;;;2.85;;
71383;SDS011;61466;52.166;5.004;2022-11-20T00:18:50;6.15;;;3.72;;
71383;SDS011;61466;52.166;5.004;2022-11-20T00:21:21;5.88;;;4.03;;
71383;SDS011;61466;52.166;5.004;2022-11-20T00:23:49;7.80;;;4.75;;
71383;SDS011;61466;52.166;5.004;2022-11-20T00:26:16;9.32;;;3.83;;
71383;SDS011;61466;52.166;5.004;2022-11-20T00:28:44;7.07;;;4.35;;
71383;SDS011;61466;52.166;5.004;2022-11-20T00:31:15;4.20;;;3.38;;
71383;SDS011;61466;52.166;5.004;2022-11-20T00:33:42;4.97;;;3.42;;
71383;SDS011;61466;52.166;5.004;2022-11-20T00:36:09;6.97;;;4.72;;
71383;SDS011;61466;52.166;5.004;2022-11-20T00:38:37;4.53;;;3.45;;
71383;SDS011;61466;52.166;5.004;2022-11-20T00:41:04;8.70;;;4.72;;
71383;SDS011;61466;52.166;5.004;2022-11-20T00:43:31;6.57;;;3.72;;
71383;SDS011;61466;52.166;5.004;2022-11-20T00:45:58;6.95;;;4.95;;
71383;SDS011;61466;52.166;5.004;2022-11-20T00:48:24;5.93;;;3.78;;
71383;SDS011;61466;52.166;5.004;2022-11-20T00:50:50;6.20;;;4.32;;
71383;SDS011;61466;52.166;5.004;2022-11-20T00:53:16;6.32;;;3.15;;
71383;SDS011;61466;52.166;5.004;2022-11-20T00:55:42;6.72;;;4.05;;
71383;SDS011;61466;52.166;5.004;2022-11-20T00:58:07;8.25;;;2.90;;
71383;SDS011;61466;52.166;5.004;2022-11-20T01:00:32;5.78;;;4.18;;
71383;SDS011;61466;52.166;5.004;2022-11-20T01:02:59;4.65;;;2.25;;
71383;SDS011;61466;52.166;5.004;2022-11-20T01:05:25;8.90;;;4.35;;
71383;SDS011;61466;52.166;5.004;2022-11-20T01:07:51;8.10;;;4.80;;
71383;SDS011;61466;52.166;5.004;2022-11-20T01:10:16;4.72;;;3.33;;
71383;SDS011;61466;52.166;5.004;2022-11-20T01:12:42;6.35;;;3.85;;
71383;SDS011;61466;52.166;5.004;2022-11-20T01:15:07;8.93;;;3.67;;
71383;SDS011;61466;52.166;5.004;2022-11-20T01:17:33;5.93;;;3.67;;
71383;SDS011;61466;52.166;5.004;2022-11-20T01:19:59;5.07;;;3.28;;
71383;SDS011;61466;52.166;5.004;2022-11-20T01:22:25;9.32;;;3.95;;
71383;SDS011;61466;52.166;5.004;2022-11-20T01:24:50;4.25;;;3.90;;
71383;SDS011;61466;52.166;5.004;2022-11-20T01:27:16;4.50;;;3.15;;
71383;SDS011;61466;52.166;5.004;2022-11-20T01:29:42;17.52;;;5.10;;
71383;SDS011;61466;52.166;5.004;2022-11-20T01:32:07;7.68;;;3.75;;
71383;SDS011;61466;52.166;5.004;2022-11-20T01:34:33;5.75;;;3.92;;
71383;SDS011;61466;52.166;5.004;2022-11-20T01:36:59;6.03;;;4.20;;
71383;SDS011;61466;52.166;5.004;2022-11-20T01:39:24;7.77;;;3.03;;
71383;SDS011;61466;52.166;5.004;2022-11-20T01:41:53;5.75;;;3.22;;
71383;SDS011;61466;52.166;5.004;2022-11-20T01:50:09;3.42;;;2.05;;
71383;SDS011;61466;52.166;5.004;2022-11-20T01:52:42;5.35;;;3.67;;
71383;SDS011;61466;52.166;5.004;2022-11-20T01:55:23;8.63;;;4.15;;
71383;SDS011;61466;52.166;5.004;2022-11-20T01:58:09;4.55;;;3.00;;
71383;SDS011;61466;52.166;5.004;2022-11-20T02:00:35;4.10;;;2.88;;
71383;SDS011;61466;52.166;5.004;2022-11-20T02:03:01;3.30;;;2.78;;
71383;SDS011;61466;52.166;5.004;2022-11-20T02:05:38;6.93;;;3.30;;
71383;SDS011;61466;52.166;5.004;2022-11-20T02:08:09;7.60;;;3.67;;
71383;SDS011;61466;52.166;5.004;2022-11-20T02:10:35;5.22;;;4.45;;
71383;SDS011;61466;52.166;5.004;2022-11-20T02:13:00;6.93;;;3.65;;
71383;SDS011;61466;52.166;5.004;2022-11-20T02:15:44;5.30;;;3.22;;
71383;SDS011;61466;52.166;5.004;2022-11-20T02:18:13;6.65;;;3.83;;
71383;SDS011;61466;52.166;5.004;2022-11-20T02:20:42;7.32;;;4.28;;
71383;SDS011;61466;52.166;5.004;2022-11-20T02:23:12;6.82;;;4.10;;
71383;SDS011;61466;52.166;5.004;2022-11-20T02:25:41;5.18;;;3.95;;
71383;SDS011;61466;52.166;5.004;2022-11-20T02:28:08;7.03;;;4.25;;
71383;SDS011;61466;52.166;5.004;2022-11-20T02:30:35;7.15;;;4.10;;
71383;SDS011;61466;52.166;5.004;2022-11-20T02:33:01;6.80;;;3.15;;
71383;SDS011;61466;52.166;5.004;2022-11-20T02:37:53;6.10;;;3.37;;
71383;SDS011;61466;52.166;5.004;2022-11-20T02:40:21;7.55;;;4.68;;
71383;SDS011;61466;52.166;5.004;2022-11-20T02:42:48;4.47;;;3.03;;
71383;SDS011;61466;52.166;5.004;2022-11-20T02:45:17;7.03;;;4.13;;
71383;SDS011;61466;52.166;5.004;2022-11-20T02:47:43;5.43;;;3.90;;
71383;SDS011;61466;52.166;5.004;2022-11-20T02:50:08;6.95;;;4.10;;
71383;SDS011;61466;52.166;5.004;2022-11-20T02:52:34;9.90;;;4.65;;
71383;SDS011;61466;52.166;5.004;2022-11-20T02:54:59;6.38;;;4.18;;
71383;SDS011;61466;52.166;5.004;2022-11-20T02:57:25;6.68;;;3.60;;
71383;SDS011;61466;52.166;5.004;2022-11-20T02:59:51;6.15;;;3.90;;
71383;SDS011;61466;52.166;5.004;2022-11-20T03:02:17;6.80;;;4.93;;
71383;SDS011;61466;52.166;5.004;2022-11-20T03:04:43;8.73;;;4.40;;
71383;SDS011;61466;52.166;5.004;2022-11-20T03:07:08;6.15;;;3.88;;
71383;SDS011;61466;52.166;5.004;2022-11-20T03:09:34;8.43;;;3.70;;
71383;SDS011;61466;52.166;5.004;2022-11-20T03:12:00;7.25;;;3.13;;
71383;SDS011;61466;52.166;5.004;2022-11-20T03:14:26;5.45;;;3.08;;
71383;SDS011;61466;52.166;5.004;2022-11-20T03:16:52;3.65;;;2.70;;
71383;SDS011;61466;52.166;5.004;2022-11-20T03:19:18;5.35;;;3.75;;
71383;SDS011;61466;52.166;5.004;2022-11-20T03:21:44;8.45;;;3.78;;
71383;SDS011;61466;52.166;5.004;2022-11-20T03:24:10;8.85;;;3.65;;
71383;SDS011;61466;52.166;5.004;2022-11-20T03:26:35;11.00;;;3.25;;
71383;SDS011;61466;52.166;5.004;2022-11-20T03:29:02;6.25;;;4.25;;
71383;SDS011;61466;52.166;5.004;2022-11-20T03:31:30;7.53;;;4.35;;
71383;SDS011;61466;52.166;5.004;2022-11-20T03:33:57;6.72;;;4.20;;
71383;SDS011;61466;52.166;5.004;2022-11-20T03:36:25;4.35;;;3.78;;
71383;SDS011;61466;52.166;5.004;2022-11-20T03:38:52;9.15;;;4.00;;
71383;SDS011;61466;52.166;5.004;2022-11-20T03:41:20;4.60;;;3.05;;
71383;SDS011;61466;52.166;5.004;2022-11-20T03:43:51;4.63;;;3.42;;
71383;SDS011;61466;52.166;5.004;2022-11-20T03:46:18;4.68;;;3.60;;
71383;SDS011;61466;52.166;5.004;2022-11-20T03:48:44;5.30;;;3.35;;
71383;SDS011;61466;52.166;5.004;2022-11-20T03:53:45;6.95;;;4.78;;
71383;SDS011;61466;52.166;5.004;2022-11-20T03:56:12;5.45;;;3.58;;
71383;SDS011;61466;52.166;5.004;2022-11-20T03:58:39;6.53;;;3.85;;
71383;SDS011;61466;52.166;5.004;2022-11-20T04:01:07;5.05;;;3.65;;
71383;SDS011;61466;52.166;5.004;2022-11-20T04:03:39;3.97;;;3.28;;
71383;SDS011;61466;52.166;5.004;2022-11-20T04:06:06;7.43;;;3.63;;
71383;SDS011;61466;52.166;5.004;2022-11-20T04:08:34;5.30;;;3.38;;
71383;SDS011;61466;52.166;5.004;2022-11-20T04:11:13;4.10;;;3.67;;
71383;SDS011;61466;52.166;5.004;2022-11-20T04:14:00;6.18;;;3.55;;
71383;SDS011;61466;52.166;5.004;2022-11-20T04:16:29;8.00;;;3.22;;
71383;SDS011;61466;52.166;5.004;2022-11-20T04:18:57;15.00;;;3.53;;
71383;SDS011;61466;52.166;5.004;2022-11-20T04:21:23;10.45;;;4.53;;
71383;SDS011;61466;52.166;5.004;2022-11-20T04:23:51;6.10;;;3.33;;
71383;SDS011;61466;52.166;5.004;2022-11-20T04:26:19;7.50;;;4.43;;
71383;SDS011;61466;52.166;5.004;2022-11-20T04:28:45;3.90;;;3.58;;
71383;SDS011;61466;52.166;5.004;2022-11-20T04:31:11;9.25;;;3.55;;
71383;SDS011;61466;52.166;5.004;2022-11-20T04:33:38;5.78;;;3.45;;
71383;SDS011;61466;52.166;5.004;2022-11-20T04:36:05;9.30;;;4.00;;
71383;SDS011;61466;52.166;5.004;2022-11-20T04:38:32;3.90;;;3.40;;
71383;SDS011;61466;52.166;5.004;2022-11-20T04:41:00;5.22;;;3.33;;
71383;SDS011;61466;52.166;5.004;2022-11-20T04:43:27;2.78;;;2.53;;
71383;SDS011;61466;52.166;5.004;2022-11-20T04:45:54;4.68;;;2.55;;
71383;SDS011;61466;52.166;5.004;2022-11-20T04:48:21;8.02;;;4.07;;
71383;SDS011;61466;52.166;5.004;2022-11-20T04:50:47;5.63;;;3.55;;
71383;SDS011;61466;52.166;5.004;2022-11-20T04:53:13;6.50;;;3.97;;
71383;SDS011;61466;52.166;5.004;2022-11-20T04:55:39;8.35;;;4.25;;
71383;SDS011;61466;52.166;5.004;2022-11-20T04:58:04;4.53;;;3.25;;
71383;SDS011;61466;52.166;5.004;2022-11-20T05:00:29;5.93;;;3.53;;
71383;SDS011;61466;52.166;5.004;2022-11-20T05:02:55;4.70;;;2.58;;
71383;SDS011;61466;52.166;5.004;2022-11-20T05:05:20;6.45;;;3.38;;
71383;SDS011;61466;52.166;5.004;2022-11-20T05:07:46;5.50;;;2.75;;
71383;SDS011;61466;52.166;5.004;2022-11-20T05:10:12;6.43;;;3.28;;
71383;SDS011;61466;52.166;5.004;2022-11-20T05:12:38;13.35;;;4.22;;
71383;SDS011;61466;52.166;5.004;2022-11-20T05:15:04;6.30;;;3.08;;
71383;SDS011;61466;52.166;5.004;2022-11-20T05:17:29;8.00;;;5.43;;
71383;SDS011;61466;52.166;5.004;2022-11-20T05:19:55;5.88;;;3.55;;
71383;SDS011;61466;52.166;5.004;2022-11-20T05:22:21;6.63;;;4.40;;
71383;SDS011;61466;52.166;5.004;2022-11-20T05:24:46;4.95;;;3.40;;
71383;SDS011;61466;52.166;5.004;2022-11-20T05:27:12;10.05;;;3.50;;
71383;SDS011;61466;52.166;5.004;2022-11-20T05:29:38;3.45;;;2.83;;
71383;SDS011;61466;52.166;5.004;2022-11-20T05:32:03;4.95;;;3.22;;
71383;SDS011;61466;52.166;5.004;2022-11-20T05:34:31;7.38;;;4.18;;
71383;SDS011;61466;52.166;5.004;2022-11-20T05:36:57;5.10;;;3.30;;
71383;SDS011;61466;52.166;5.004;2022-11-20T05:39:23;5.90;;;3.95;;
71383;SDS011;61466;52.166;5.004;2022-11-20T05:41:48;9.40;;;4.18;;
71383;SDS011;61466;52.166;5.004;2022-11-20T05:44:34;6.80;;;3.88;;
71383;SDS011;61466;52.166;5.004;2022-11-20T05:46:59;7.88;;;4.65;;
71383;SDS011;61466;52.166;5.004;2022-11-20T05:49:24;5.63;;;3.40;;
71383;SDS011;61466;52.166;5.004;2022-11-20T05:51:50;7.80;;;3.78;;
71383;SDS011;61466;52.166;5.004;2022-11-20T05:54:15;6.20;;;3.92;;
71383;SDS011;61466;52.166;5.004;2022-11-20T05:56:41;6.53;;;4.43;;
71383;SDS011;61466;52.166;5.004;2022-11-20T05:59:07;10.45;;;4.50;;
71383;SDS011;61466;52.166;5.004;2022-11-20T06:01:33;8.48;;;4.55;;
71383;SDS011;61466;52.166;5.004;2022-11-20T06:04:00;3.53;;;2.35;;
71383;SDS011;61466;52.166;5.004;2022-11-20T06:06:26;5.80;;;4.70;;
71383;SDS011;61466;52.166;5.004;2022-11-20T06:08:52;6.60;;;3.05;;
71383;SDS011;61466;52.166;5.004;2022-11-20T06:11:18;4.60;;;3.08;;
71383;SDS011;61466;52.166;5.004;2022-11-20T06:13:44;6.05;;;3.75;;
71383;SDS011;61466;52.166;5.004;2022-11-20T06:16:12;8.82;;;3.95;;
71383;SDS011;61466;52.166;5.004;2022-11-20T06:18:39;5.80;;;3.58;;
71383;SDS011;61466;52.166;5.004;2022-11-20T06:21:09;6.80;;;3.65;;
71383;SDS011;61466;52.166;5.004;2022-11-20T06:23:39;8.43;;;4.13;;
71383;SDS011;61466;52.166;5.004;2022-11-20T06:26:10;8.25;;;5.25;;
71383;SDS011;61466;52.166;5.004;2022-11-20T06:28:37;4.35;;;3.95;;
71383;SDS011;61466;52.166;5.004;2022-11-20T06:31:03;8.02;;;4.82;;
71383;SDS011;61466;52.166;5.004;2022-11-20T06:33:30;5.25;;;3.53;;
71383;SDS011;61466;52.166;5.004;2022-11-20T06:35:57;7.57;;;4.40;;
71383;SDS011;61466;52.166;5.004;2022-11-20T06:38:24;6.30;;;4.20;;
71383;SDS011;61466;52.166;5.004;2022-11-20T06:40:50;7.72;;;4.90;;
71383;SDS011;61466;52.166;5.004;2022-11-20T06:43:16;7.47;;;4.15;;
71383;SDS011;61466;52.166;5.004;2022-11-20T06:45:41;5.72;;;3.72;;
71383;SDS011;61466;52.166;5.004;2022-11-20T06:48:08;12.25;;;4.63;;
71383;SDS011;61466;52.166;5.004;2022-11-20T06:50:35;7.35;;;4.15;;
71383;SDS011;61466;52.166;5.004;2022-11-20T06:53:02;6.10;;;2.92;;
71383;SDS011;61466;52.166;5.004;2022-11-20T06:55:28;7.45;;;4.05;;
71383;SDS011;61466;52.166;5.004;2022-11-20T06:57:54;7.35;;;4.28;;
71383;SDS011;61466;52.166;5.004;2022-11-20T07:00:20;12.43;;;4.75;;
71383;SDS011;61466;52.166;5.004;2022-11-20T07:02:46;5.20;;;3.85;;
71383;SDS011;61466;52.166;5.004;2022-11-20T07:05:11;5.45;;;3.83;;
71383;SDS011;61466;52.166;5.004;2022-11-20T07:07:37;4.18;;;3.70;;
71383;SDS011;61466;52.166;5.004;2022-11-20T07:10:03;4.65;;;3.78;;
71383;SDS011;61466;52.166;5.004;2022-11-20T07:12:29;5.07;;;3.78;;
71383;SDS011;61466;52.166;5.004;2022-11-20T07:14:55;4.97;;;3.35;;
71383;SDS011;61466;52.166;5.004;2022-11-20T07:17:21;5.55;;;4.57;;
71383;SDS011;61466;52.166;5.004;2022-11-20T07:19:47;7.82;;;3.67;;
71383;SDS011;61466;52.166;5.004;2022-11-20T07:22:13;6.50;;;3.03;;
71383;SDS011;61466;52.166;5.004;2022-11-20T07:24:39;7.00;;;4.00;;
71383;SDS011;61466;52.166;5.004;2022-11-20T07:27:04;7.00;;;4.50;;
71383;SDS011;61466;52.166;5.004;2022-11-20T07:29:30;6.00;;;3.60;;
71383;SDS011;61466;52.166;5.004;2022-11-20T07:31:56;4.60;;;4.03;;
71383;SDS011;61466;52.166;5.004;2022-11-20T07:34:22;8.70;;;5.03;;
71383;SDS011;61466;52.166;5.004;2022-11-20T07:36:48;7.68;;;4.05;;
71383;SDS011;61466;52.166;5.004;2022-11-20T07:39:13;10.73;;;4.28;;
71383;SDS011;61466;52.166;5.004;2022-11-20T07:41:39;7.07;;;4.82;;
71383;SDS011;61466;52.166;5.004;2022-11-20T07:44:04;5.47;;;4.60;;
71383;SDS011;61466;52.166;5.004;2022-11-20T07:46:30;5.75;;;4.05;;
71383;SDS011;61466;52.166;5.004;2022-11-20T07:48:56;7.38;;;3.67;;
71383;SDS011;61466;52.166;5.004;2022-11-20T07:51:22;11.38;;;5.05;;
71383;SDS011;61466;52.166;5.004;2022-11-20T07:53:50;9.18;;;4.40;;
71383;SDS011;61466;52.166;5.004;2022-11-20T07:59:24;8.88;;;4.88;;
71383;SDS011;61466;52.166;5.004;2022-11-20T08:01:50;5.68;;;4.88;;
71383;SDS011;61466;52.166;5.004;2022-11-20T08:04:16;11.38;;;6.28;;
71383;SDS011;61466;52.166;5.004;2022-11-20T08:06:42;11.25;;;5.72;;
71383;SDS011;61466;52.166;5.004;2022-11-20T08:09:07;8.00;;;4.95;;
71383;SDS011;61466;52.166;5.004;2022-11-20T08:11:32;6.35;;;5.47;;
71383;SDS011;61466;52.166;5.004;2022-11-20T08:14:17;11.30;;;5.03;;
71383;SDS011;61466;52.166;5.004;2022-11-20T08:16:44;13.25;;;6.05;;
71383;SDS011;61466;52.166;5.004;2022-11-20T08:19:11;8.98;;;5.25;;
71383;SDS011;61466;52.166;5.004;2022-11-20T08:21:38;8.70;;;5.25;;
71383;SDS011;61466;52.166;5.004;2022-11-20T08:24:04;9.30;;;4.70;;
71383;SDS011;61466;52.166;5.004;2022-11-20T08:26:32;5.47;;;3.92;;
71383;SDS011;61466;52.166;5.004;2022-11-20T08:28:58;12.43;;;5.60;;
71383;SDS011;61466;52.166;5.004;2022-11-20T08:31:24;7.85;;;4.43;;
71383;SDS011;61466;52.166;5.004;2022-11-20T08:33:51;9.68;;;5.50;;
71383;SDS011;61466;52.166;5.004;2022-11-20T08:36:17;13.35;;;6.03;;
71383;SDS011;61466;52.166;5.004;2022-11-20T08:38:51;12.80;;;6.45;;
71383;SDS011;61466;52.166;5.004;2022-11-20T08:41:18;10.25;;;6.50;;
71383;SDS011;61466;52.166;5.004;2022-11-20T08:43:54;6.53;;;4.60;;
71383;SDS011;61466;52.166;5.004;2022-11-20T08:46:22;9.75;;;5.15;;
71383;SDS011;61466;52.166;5.004;2022-11-20T08:48:48;10.73;;;6.05;;
71383;SDS011;61466;52.166;5.004;2022-11-20T08:51:14;7.72;;;5.45;;
71383;SDS011;61466;52.166;5.004;2022-11-20T08:53:40;8.95;;;5.22;;
71383;SDS011;61466;52.166;5.004;2022-11-20T08:56:06;8.18;;;4.50;;
71383;SDS011;61466;52.166;5.004;2022-11-20T08:58:32;8.00;;;5.97;;
71383;SDS011;61466;52.166;5.004;2022-11-20T09:00:58;9.55;;;4.97;;
71383;SDS011;61466;52.166;5.004;2022-11-20T09:03:24;11.30;;;6.65;;
71383;SDS011;61466;52.166;5.004;2022-11-20T09:05:56;10.82;;;7.43;;
71383;SDS011;61466;52.166;5.004;2022-11-20T09:08:23;12.90;;;6.00;;
71383;SDS011;61466;52.166;5.004;2022-11-20T09:10:51;8.50;;;5.93;;
71383;SDS011;61466;52.166;5.004;2022-11-20T09:13:17;9.32;;;5.50;;
71383;SDS011;61466;52.166;5.004;2022-11-20T09:15:43;9.45;;;5.93;;
71383;SDS011;61466;52.166;5.004;2022-11-20T09:18:08;12.40;;;5.55;;
71383;SDS011;61466;52.166;5.004;2022-11-20T09:20:33;10.30;;;5.00;;
71383;SDS011;61466;52.166;5.004;2022-11-20T09:22:59;8.85;;;5.35;;
71383;SDS011;61466;52.166;5.004;2022-11-20T09:25:25;10.82;;;5.47;;
71383;SDS011;61466;52.166;5.004;2022-11-20T09:27:55;8.88;;;5.43;;
71383;SDS011;61466;52.166;5.004;2022-11-20T09:30:22;15.20;;;7.15;;
71383;SDS011;61466;52.166;5.004;2022-11-20T09:32:47;11.02;;;5.68;;
71383;SDS011;61466;52.166;5.004;2022-11-20T09:35:13;11.98;;;6.18;;
71383;SDS011;61466;52.166;5.004;2022-11-20T09:37:40;13.15;;;5.57;;
71383;SDS011;61466;52.166;5.004;2022-11-20T09:40:06;10.52;;;6.63;;
71383;SDS011;61466;52.166;5.004;2022-11-20T09:51:23;10.75;;;6.57;;
71383;SDS011;61466;52.166;5.004;2022-11-20T09:56:37;10.55;;;6.25;;
71383;SDS011;61466;52.166;5.004;2022-11-20T09:59:06;17.85;;;7.60;;
71383;SDS011;61466;52.166;5.004;2022-11-20T10:01:51;11.68;;;6.57;;
71383;SDS011;61466;52.166;5.004;2022-11-20T10:04:19;12.90;;;6.85;;
71383;SDS011;61466;52.166;5.004;2022-11-20T10:09:40;14.07;;;7.40;;
71383;SDS011;61466;52.166;5.004;2022-11-20T10:12:19;11.00;;;5.72;;
71383;SDS011;61466;52.166;5.004;2022-11-20T10:24:02;10.80;;;6.57;;
71383;SDS011;61466;52.166;5.004;2022-11-20T10:29:34;10.10;;;7.47;;
71383;SDS011;61466;52.166;5.004;2022-11-20T10:32:07;14.00;;;7.15;;
71383;SDS011;61466;52.166;5.004;2022-11-20T10:37:26;12.65;;;8.10;;
71383;SDS011;61466;52.166;5.004;2022-11-20T10:40:01;19.10;;;8.75;;
71383;SDS011;61466;52.166;5.004;2022-11-20T10:47:50;16.77;;;8.07;;
71383;SDS011;61466;52.166;5.004;2022-11-20T10:50:21;15.27;;;9.32;;
71383;SDS011;61466;52.166;5.004;2022-11-20T10:56:46;17.33;;;9.32;;
71383;SDS011;61466;52.166;5.004;2022-11-20T11:01:52;15.48;;;8.27;;
71383;SDS011;61466;52.166;5.004;2022-11-20T11:04:26;16.27;;;7.85;;
71383;SDS011;61466;52.166;5.004;2022-11-20T11:07:04;12.40;;;7.75;;
71383;SDS011;61466;52.166;5.004;2022-11-20T11:09:50;14.98;;;8.68;;
71383;SDS011;61466;52.166;5.004;2022-11-20T11:12:20;17.40;;;9.43;;
71383;SDS011;61466;52.166;5.004;2022-11-20T11:14:52;14.95;;;9.32;;
71383;SDS011;61466;52.166;5.004;2022-11-20T11:17:20;15.48;;;9.80;;
71383;SDS011;61466;52.166;5.004;2022-11-20T11:22:47;22.80;;;10.27;;
71383;SDS011;61466;52.166;5.004;2022-11-20T11:25:35;17.52;;;9.13;;
71383;SDS011;61466;52.166;5.004;2022-11-20T11:30:29;21.08;;;9.52;;
71383;SDS011;61466;52.166;5.004;2022-11-20T11:33:11;19.65;;;8.85;;
71383;SDS011;61466;52.166;5.004;2022-11-20T11:35:46;19.45;;;9.68;;
71383;SDS011;61466;52.166;5.004;2022-11-20T11:38:15;20.52;;;8.68;;
71383;SDS011;61466;52.166;5.004;2022-11-20T11:40:44;24.25;;;9.88;;
71383;SDS011;61466;52.166;5.004;2022-11-20T11:43:29;21.38;;;10.25;;
71383;SDS011;61466;52.166;5.004;2022-11-20T11:49:01;21.25;;;9.80;;
71383;SDS011;61466;52.166;5.004;2022-11-20T11:54:43;27.90;;;11.40;;
71383;SDS011;61466;52.166;5.004;2022-11-20T12:00:08;18.35;;;10.23;;
71383;SDS011;61466;52.166;5.004;2022-11-20T12:05:14;27.65;;;12.25;;
71383;SDS011;61466;52.166;5.004;2022-11-20T12:07:42;23.85;;;10.85;;
71383;SDS011;61466;52.166;5.004;2022-11-20T12:10:21;25.42;;;12.32;;
71383;SDS011;61466;52.166;5.004;2022-11-20T12:12:54;19.45;;;8.50;;
71383;SDS011;61466;52.166;5.004;2022-11-20T12:15:28;19.17;;;10.75;;
71383;SDS011;61466;52.166;5.004;2022-11-20T12:17:56;18.80;;;8.88;;
71383;SDS011;61466;52.166;5.004;2022-11-20T12:20:24;21.40;;;9.70;;
71383;SDS011;61466;52.166;5.004;2022-11-20T12:23:39;27.63;;;11.20;;
71383;SDS011;61466;52.166;5.004;2022-11-20T12:25:52;17.83;;;9.45;;
71383;SDS011;61466;52.166;5.004;2022-11-20T12:33:52;23.75;;;10.57;;
71383;SDS011;61466;52.166;5.004;2022-11-20T12:39:35;22.30;;;10.82;;
71383;SDS011;61466;52.166;5.004;2022-11-20T12:42:13;22.52;;;11.77;;
71383;SDS011;61466;52.166;5.004;2022-11-20T12:57:07;19.45;;;10.50;;
71383;SDS011;61466;52.166;5.004;2022-11-20T13:08:03;26.85;;;10.93;;
71383;SDS011;61466;52.166;5.004;2022-11-20T13:10:43;25.17;;;12.15;;
71383;SDS011;61466;52.166;5.004;2022-11-20T13:13:28;24.42;;;10.73;;
71383;SDS011;61466;52.166;5.004;2022-11-20T13:19:03;23.10;;;11.15;;
71383;SDS011;61466;52.166;5.004;2022-11-20T13:21:36;20.48;;;10.75;;
71383;SDS011;61466;52.166;5.004;2022-11-20T13:24:05;24.85;;;12.43;;
71383;SDS011;61466;52.166;5.004;2022-11-20T13:26:32;20.92;;;10.32;;
71383;SDS011;61466;52.166;5.004;2022-11-20T13:29:11;17.27;;;9.07;;
71383;SDS011;61466;52.166;5.004;2022-11-20T13:31:42;25.15;;;11.10;;
71383;SDS011;61466;52.166;5.004;2022-11-20T13:34:11;18.70;;;9.25;;
71383;SDS011;61466;52.166;5.004;2022-11-20T13:36:54;20.27;;;9.82;;
71383;SDS011;61466;52.166;5.004;2022-11-20T13:39:30;21.65;;;11.18;;
71383;SDS011;61466;52.166;5.004;2022-11-20T13:44:41;26.25;;;11.73;;
71383;SDS011;61466;52.166;5.004;2022-11-20T13:50:02;21.70;;;11.70;;
71383;SDS011;61466;52.166;5.004;2022-11-20T14:03:42;22.83;;;12.30;;
71383;SDS011;61466;52.166;5.004;2022-11-20T14:06:12;24.38;;;10.77;;
71383;SDS011;61466;52.166;5.004;2022-11-20T14:08:50;23.27;;;9.35;;
71383;SDS011;61466;52.166;5.004;2022-11-20T14:11:17;27.23;;;11.57;;
71383;SDS011;61466;52.166;5.004;2022-11-20T14:14:03;22.90;;;11.95;;
71383;SDS011;61466;52.166;5.004;2022-11-20T14:16:38;23.80;;;10.38;;
71383;SDS011;61466;52.166;5.004;2022-11-20T14:19:24;20.13;;;11.45;;
71383;SDS011;61466;52.166;5.004;2022-11-20T14:22:14;25.73;;;10.15;;
71383;SDS011;61466;52.166;5.004;2022-11-20T14:24:43;29.17;;;12.05;;
71383;SDS011;61466;52.166;5.004;2022-11-20T14:27:11;16.83;;;10.60;;
71383;SDS011;61466;52.166;5.004;2022-11-20T14:29:47;21.48;;;10.60;;
71383;SDS011;61466;52.166;5.004;2022-11-20T14:32:15;28.05;;;11.57;;
71383;SDS011;61466;52.166;5.004;2022-11-20T14:34:43;30.42;;;12.27;;
71383;SDS011;61466;52.166;5.004;2022-11-20T14:37:12;27.10;;;11.32;;
71383;SDS011;61466;52.166;5.004;2022-11-20T14:39:42;19.38;;;9.25;;
71383;SDS011;61466;52.166;5.004;2022-11-20T14:42:18;29.05;;;12.68;;
71383;SDS011;61466;52.166;5.004;2022-11-20T14:44:45;25.48;;;12.70;;
71383;SDS011;61466;52.166;5.004;2022-11-20T14:47:13;26.65;;;14.10;;
71383;SDS011;61466;52.166;5.004;2022-11-20T14:49:43;27.77;;;11.27;;
71383;SDS011;61466;52.166;5.004;2022-11-20T14:52:11;25.92;;;13.70;;
71383;SDS011;61466;52.166;5.004;2022-11-20T14:54:47;31.70;;;13.82;;
71383;SDS011;61466;52.166;5.004;2022-11-20T14:57:21;25.40;;;12.10;;
71383;SDS011;61466;52.166;5.004;2022-11-20T14:59:51;28.27;;;12.65;;
71383;SDS011;61466;52.166;5.004;2022-11-20T15:02:46;25.10;;;11.00;;
71383;SDS011;61466;52.166;5.004;2022-11-20T15:05:14;20.25;;;10.95;;
71383;SDS011;61466;52.166;5.004;2022-11-20T15:07:45;30.45;;;12.57;;
71383;SDS011;61466;52.166;5.004;2022-11-20T15:10:44;23.92;;;13.50;;
71383;SDS011;61466;52.166;5.004;2022-11-20T15:13:12;25.40;;;13.10;;
71383;SDS011;61466;52.166;5.004;2022-11-20T15:18:17;24.05;;;11.32;;
71383;SDS011;61466;52.166;5.004;2022-11-20T15:20:46;33.97;;;18.55;;
71383;SDS011;61466;52.166;5.004;2022-11-20T15:23:14;29.25;;;13.68;;
71383;SDS011;61466;52.166;5.004;2022-11-20T15:25:41;35.78;;;16.75;;
71383;SDS011;61466;52.166;5.004;2022-11-20T15:28:12;29.92;;;14.13;;
71383;SDS011;61466;52.166;5.004;2022-11-20T15:30:39;28.00;;;13.68;;
71383;SDS011;61466;52.166;5.004;2022-11-20T15:33:04;29.23;;;15.25;;
71383;SDS011;61466;52.166;5.004;2022-11-20T15:35:33;23.08;;;11.55;;
71383;SDS011;61466;52.166;5.004;2022-11-20T15:37:59;24.85;;;13.05;;
71383;SDS011;61466;52.166;5.004;2022-11-20T15:40:25;21.85;;;12.43;;
71383;SDS011;61466;52.166;5.004;2022-11-20T15:42:50;26.02;;;10.43;;
71383;SDS011;61466;52.166;5.004;2022-11-20T15:45:29;29.20;;;15.27;;
71383;SDS011;61466;52.166;5.004;2022-11-20T15:47:58;23.42;;;10.48;;
71383;SDS011;61466;52.166;5.004;2022-11-20T15:50:27;22.48;;;9.00;;
71383;SDS011;61466;52.166;5.004;2022-11-20T15:53:03;17.80;;;10.60;;
71383;SDS011;61466;52.166;5.004;2022-11-20T15:55:29;50.50;;;19.17;;
71383;SDS011;61466;52.166;5.004;2022-11-20T15:57:55;17.55;;;10.65;;
71383;SDS011;61466;52.166;5.004;2022-11-20T16:00:21;27.17;;;12.93;;
71383;SDS011;61466;52.166;5.004;2022-11-20T16:02:46;25.40;;;12.10;;
71383;SDS011;61466;52.166;5.004;2022-11-20T16:05:12;20.38;;;10.45;;
71383;SDS011;61466;52.166;5.004;2022-11-20T16:07:40;33.28;;;16.27;;
71383;SDS011;61466;52.166;5.004;2022-11-20T16:10:06;41.38;;;20.80;;
71383;SDS011;61466;52.166;5.004;2022-11-20T16:12:32;16.60;;;10.75;;
71383;SDS011;61466;52.166;5.004;2022-11-20T16:15:24;20.05;;;11.23;;
71383;SDS011;61466;52.166;5.004;2022-11-20T16:18:08;19.90;;;11.50;;
71383;SDS011;61466;52.166;5.004;2022-11-20T16:20:37;21.65;;;10.80;;
71383;SDS011;61466;52.166;5.004;2022-11-20T16:23:04;19.70;;;10.82;;
71383;SDS011;61466;52.166;5.004;2022-11-20T16:25:31;15.85;;;8.52;;
71383;SDS011;61466;52.166;5.004;2022-11-20T16:27:57;17.92;;;10.77;;
71383;SDS011;61466;52.166;5.004;2022-11-20T16:30:23;10.63;;;7.45;;
71383;SDS011;61466;52.166;5.004;2022-11-20T16:32:48;18.20;;;9.82;;
71383;SDS011;61466;52.166;5.004;2022-11-20T16:35:14;22.17;;;10.80;;
71383;SDS011;61466;52.166;5.004;2022-11-20T16:37:39;22.10;;;10.70;;
71383;SDS011;61466;52.166;5.004;2022-11-20T16:40:05;17.48;;;8.07;;
71383;SDS011;61466;52.166;5.004;2022-11-20T16:42:32;15.90;;;8.15;;
71383;SDS011;61466;52.166;5.004;2022-11-20T16:44:59;16.10;;;9.27;;
71383;SDS011;61466;52.166;5.004;2022-11-20T16:47:25;20.50;;;11.27;;
71383;SDS011;61466;52.166;5.004;2022-11-20T16:49:51;17.77;;;11.18;;
71383;SDS011;61466;52.166;5.004;2022-11-20T16:52:16;22.10;;;10.50;;